Terminal Aerodrome Forecast
Issued by NWS

Home | Current Version | Previous Version | Text Only | Print | Product List | Glossary On
Versions: 1 2 3 4 5 6 7 8 9 10 11 12 13 14 15 16 17 18 19 20
299
FTUS46 KEKA 260251 CCB
TAFCEC
TAF COR
KCEC 260251Z 2603/2624 20010KT 6SM -RA BR SCT007 OVC030
     FM260500 31010KT 6SM -SHRA FEW015 OVC030
     FM261300 35005KT P6SM FEW015 BKN030
     FM261700 36006KT P6SM SCT030 BKN150
     FM262000 33010KT P6SM SCT250=

USA.gov is the U.S. government's official web portal to all federal, state and local government web resources and services.